Time;durP1;ratioP1;P1;durP2;ratioP2;P2;SDS_P1;SDS_P2;PMS_P1;PMS_P2;Temp;Humidity;BMP_temperature;BMP_pressure;BME280_temperature;BME280_humidity;BME280_pressure;Samples;Min_cycle;Max_cycle;Signal;HPM_P1;HPM_P2
2022/01/25 00:28:22;;;;;;;17.97;13.00;;;7.60;99.90;;;;;;4994754;28;20443;-69
2022/01/25 00:33:34;;;;;;;19.77;16.13;;;7.60;99.90;;;;;;5032398;28;20405;-81
2022/01/25 00:36:01;;;;;;;18.27;13.60;;;7.60;99.90;;;;;;5032831;28;20497;-68
2022/01/25 00:38:27;;;;;;;18.13;14.93;;;7.70;99.90;;;;;;5014858;28;20521;-68
2022/01/25 00:40:53;;;;;;;16.43;13.10;;;7.60;99.90;;;;;;5032579;28;20396;-68
2022/01/25 00:43:23;;;;;;;17.93;13.70;;;7.60;99.90;;;;;;5046423;28;20207;-68
2022/01/25 00:45:52;;;;;;;20.27;14.20;;;7.60;99.90;;;;;;5040116;28;20386;-68
2022/01/25 00:48:29;;;;;;;18.83;14.07;;;7.50;99.90;;;;;;5052742;28;20437;-68
2022/01/25 00:51:03;;;;;;;17.33;13.47;;;7.50;99.90;;;;;;5041161;28;20398;-68
2022/01/25 00:56:13;;;;;;;26.43;17.00;;;7.50;99.90;;;;;;5032387;28;20409;-68
2022/01/25 00:58:39;;;;;;;22.57;15.03;;;7.50;99.90;;;;;;5013606;28;20435;-69
2022/01/25 01:01:05;;;;;;;19.30;14.60;;;7.50;99.90;;;;;;5032362;28;20185;-68
2022/01/25 01:03:30;;;;;;;17.47;14.07;;;7.50;99.90;;;;;;5033536;28;20688;-68
2022/01/25 01:05:56;;;;;;;22.23;15.97;;;7.50;99.90;;;;;;5023035;28;20193;-68
2022/01/25 01:08:22;;;;;;;23.03;16.33;;;7.60;99.90;;;;;;5032066;28;20214;-68
2022/01/25 01:10:47;;;;;;;24.60;15.60;;;7.60;99.90;;;;;;5031906;28;20186;-68
2022/01/25 01:32:31;;;;;;;21.77;14.60;;;7.60;99.90;;;;;;5050442;28;20419;-68
2022/01/25 01:50:12;;;;;;;23.53;16.10;;;7.60;99.90;;;;;;5031823;28;20408;-69
2022/01/25 01:52:38;;;;;;;20.37;14.20;;;7.60;99.90;;;;;;5031434;28;20492;-81
2022/01/25 01:55:06;;;;;;;23.50;15.23;;;7.60;99.90;;;;;;5014281;28;20495;-69
2022/01/25 01:57:32;;;;;;;23.13;16.07;;;7.60;99.90;;;;;;5014185;28;20185;-68
2022/01/25 01:59:58;;;;;;;21.70;16.07;;;7.70;99.90;;;;;;5017503;28;20430;-69
2022/01/25 02:02:23;;;;;;;24.70;15.60;;;7.50;99.90;;;;;;5050211;28;20399;-69
2022/01/25 02:04:49;;;;;;;19.93;15.10;;;7.70;99.90;;;;;;5049663;28;20622;-71
2022/01/25 02:07:15;;;;;;;19.63;13.83;;;7.40;99.90;;;;;;5036874;28;20226;-68
2022/01/25 02:09:41;;;;;;;23.37;16.20;;;7.30;99.90;;;;;;5037269;28;20183;-69
2022/01/25 02:12:07;;;;;;;23.40;16.37;;;7.40;99.90;;;;;;5036990;28;20430;-68
2022/01/25 02:14:35;;;;;;;20.33;15.70;;;7.40;99.90;;;;;;5037800;28;20541;-68
2022/01/25 02:17:14;;;;;;;22.00;15.13;;;7.40;99.90;;;;;;5020707;28;20398;-68
2022/01/25 02:22:32;;;;;;;23.80;16.00;;;7.50;99.90;;;;;;5055636;28;20448;-68
2022/01/25 02:24:58;;;;;;;19.23;15.30;;;7.50;99.90;;;;;;5053573;28;21070;-69
2022/01/25 02:27:25;;;;;;;23.47;16.87;;;7.50;99.90;;;;;;5055339;28;20463;-68
2022/01/25 02:29:51;;;;;;;23.07;15.17;;;7.50;99.90;;;;;;5054712;28;20430;-69
2022/01/25 02:32:16;;;;;;;23.00;14.70;;;7.60;99.90;;;;;;5055077;28;20410;-69
2022/01/25 02:34:43;;;;;;;20.47;13.77;;;7.70;99.90;;;;;;5054264;28;20528;-70
2022/01/25 02:37:12;;;;;;;30.40;16.80;;;7.70;99.90;;;;;;5036236;28;20189;-69
2022/01/25 02:39:41;;;;;;;24.53;16.23;;;7.70;99.90;;;;;;5017552;28;20423;-81
2022/01/25 02:42:08;;;;;;;24.40;17.23;;;7.80;99.90;;;;;;5018015;28;20429;-69
2022/01/25 02:44:35;;;;;;;21.63;16.80;;;7.70;99.90;;;;;;5055126;28;20415;-69
2022/01/25 02:49:33;;;;;;;22.40;15.43;;;7.70;99.90;;;;;;5055058;28;20415;-69
2022/01/25 02:52:02;;;;;;;21.30;14.90;;;7.70;99.90;;;;;;5054257;28;20405;-68
2022/01/25 02:54:29;;;;;;;26.03;19.03;;;7.70;99.90;;;;;;5033699;28;20997;-68
2022/01/25 02:56:55;;;;;;;24.73;17.03;;;7.70;99.90;;;;;;5034182;28;20419;-68
2022/01/25 02:59:21;;;;;;;22.23;16.60;;;7.70;99.90;;;;;;5035121;28;20419;-69
2022/01/25 03:01:49;;;;;;;22.00;15.60;;;7.80;99.90;;;;;;4999936;28;20429;-69
2022/01/25 03:04:16;;;;;;;22.00;18.10;;;7.80;99.90;;;;;;5037226;28;20438;-68
2022/01/25 03:06:43;;;;;;;21.73;17.33;;;7.70;99.90;;;;;;5053710;28;20419;-82
2022/01/25 03:09:09;;;;;;;23.03;16.00;;;7.60;99.90;;;;;;5054653;28;20443;-68
2022/01/25 03:11:35;;;;;;;18.43;14.33;;;7.60;99.90;;;;;;5049590;28;20432;-68
2022/01/25 03:14:06;;;;;;;24.33;16.00;;;7.60;99.90;;;;;;5033955;28;21056;-68
2022/01/25 03:16:47;;;;;;;21.93;15.53;;;7.60;99.90;;;;;;5034882;28;20167;-69
2022/01/25 03:21:59;;;;;;;21.97;18.07;;;7.20;99.90;;;;;;5034040;28;20475;-69
2022/01/25 03:24:26;;;;;;;18.60;14.80;;;7.50;99.90;;;;;;5034714;28;20383;-68
2022/01/25 03:26:52;;;;;;;19.50;14.83;;;7.50;99.90;;;;;;5016193;28;20402;-68
2022/01/25 03:29:18;;;;;;;22.30;17.30;;;7.60;99.90;;;;;;5034446;28;20924;-68
2022/01/25 03:31:44;;;;;;;21.07;16.57;;;7.60;99.90;;;;;;5015855;28;20415;-82
2022/01/25 03:34:09;;;;;;;19.73;15.90;;;7.70;99.90;;;;;;5034528;28;20420;-68
2022/01/25 03:36:35;;;;;;;24.40;15.37;;;7.40;99.90;;;;;;5016481;28;20638;-69
2022/01/25 03:39:03;;;;;;;26.00;16.47;;;7.70;99.90;;;;;;5033900;28;20789;-68
2022/01/25 03:41:30;;;;;;;20.30;15.23;;;7.70;99.90;;;;;;5029387;28;20172;-68
2022/01/25 03:43:56;;;;;;;19.37;14.83;;;7.70;99.90;;;;;;5053218;28;20506;-68
2022/01/25 03:46:52;;;;;;;23.37;16.10;;;7.70;99.90;;;;;;5053991;28;20407;-69
2022/01/25 03:52:03;;;;;;;19.77;15.13;;;7.70;99.90;;;;;;5035436;28;20417;-68
2022/01/25 03:54:29;;;;;;;20.30;14.80;;;7.60;99.90;;;;;;5033990;28;20413;-69
2022/01/25 03:56:55;;;;;;;23.77;16.13;;;7.60;99.90;;;;;;5033198;28;20970;-69
2022/01/25 03:59:21;;;;;;;26.80;16.60;;;7.50;99.90;;;;;;5033934;28;20224;-69
2022/01/25 04:01:46;;;;;;;21.73;15.80;;;7.50;99.90;;;;;;5033885;28;20630;-84
2022/01/25 04:04:13;;;;;;;20.27;15.40;;;7.50;99.90;;;;;;5035705;28;20176;-69
2022/01/25 04:06:43;;;;;;;22.13;15.67;;;7.50;99.90;;;;;;5036183;28;20694;-69
2022/01/25 04:09:09;;;;;;;22.10;15.83;;;7.40;99.90;;;;;;5035514;28;20430;-69
2022/01/25 04:11:36;;;;;;;22.07;15.73;;;7.40;99.90;;;;;;5053894;28;20481;-69
2022/01/25 04:14:02;;;;;;;24.80;17.87;;;7.40;99.90;;;;;;5035484;28;20431;-69
2022/01/25 04:16:33;;;;;;;25.77;16.70;;;7.20;99.90;;;;;;5054023;28;20746;-69
2022/01/25 04:26:45;;;;;;;22.90;14.90;;;7.40;99.90;;;;;;5053296;28;20417;-80
2022/01/25 04:29:11;;;;;;;23.77;17.53;;;7.50;99.90;;;;;;5035684;28;20393;-69
2022/01/25 04:31:38;;;;;;;23.37;15.57;;;7.60;99.90;;;;;;5050938;28;20180;-69
2022/01/25 04:34:26;;;;;;;25.43;17.17;;;7.60;99.90;;;;;;5034831;28;20673;-69
2022/01/25 04:48:50;;;;;;;24.13;16.33;;;7.60;99.90;;;;;;5035275;28;20404;-69
2022/01/25 04:59:21;;;;;;;22.67;14.47;;;7.50;99.90;;;;;;4981996;28;20236;-70
2022/01/25 05:01:38;;;;;;;22.87;15.57;;;7.60;99.90;;;;;;5032553;28;20447;-69
2022/01/25 05:04:12;;;;;;;20.43;14.60;;;7.50;99.90;;;;;;5015032;28;20453;-69
2022/01/25 05:06:40;;;;;;;21.57;14.93;;;7.50;99.90;;;;;;5015521;28;20412;-68
2022/01/25 05:09:10;;;;;;;22.83;15.20;;;7.60;99.90;;;;;;5015119;28;20562;-68
2022/01/25 05:11:40;;;;;;;22.03;16.00;;;7.60;99.90;;;;;;5015565;28;20420;-68
2022/01/25 05:16:37;;;;;;;22.93;14.90;;;7.60;99.90;;;;;;5015459;28;20447;-69
2022/01/25 05:22:07;;;;;;;24.03;14.97;;;7.50;99.90;;;;;;5033006;28;20546;-68
2022/01/25 05:24:38;;;;;;;20.23;14.27;;;7.60;99.90;;;;;;5015066;28;20458;-68
2022/01/25 05:27:05;;;;;;;24.37;15.47;;;7.60;99.90;;;;;;5014492;28;20432;-69
2022/01/25 05:29:31;;;;;;;24.57;14.90;;;7.60;99.90;;;;;;5015371;28;20550;-68
2022/01/25 05:31:57;;;;;;;22.13;14.43;;;7.60;99.90;;;;;;5032488;28;20919;-68
2022/01/25 05:34:23;;;;;;;21.10;15.73;;;7.60;99.90;;;;;;5033331;28;20416;-68
2022/01/25 05:36:49;;;;;;;19.73;14.57;;;7.20;99.80;;;;;;5032836;28;20416;-83
2022/01/25 05:39:21;;;;;;;23.73;14.80;;;7.60;99.90;;;;;;5032958;28;20542;-68
2022/01/25 05:41:55;;;;;;;21.90;14.80;;;7.60;99.90;;;;;;5014988;28;20762;-71
2022/01/25 05:44:40;;;;;;;21.53;14.90;;;7.70;99.90;;;;;;4999370;28;20778;-68
2022/01/25 05:47:07;;;;;;;19.37;13.97;;;7.70;99.90;;;;;;5017709;28;20508;-68
2022/01/25 05:49:39;;;;;;;24.13;15.90;;;7.60;99.90;;;;;;5032588;28;21016;-69
2022/01/25 05:52:08;;;;;;;20.37;15.87;;;7.50;99.90;;;;;;5032551;28;20413;-68
2022/01/25 05:54:35;;;;;;;21.47;15.27;;;7.50;99.90;;;;;;4998747;28;20428;-68
2022/01/25 05:57:01;;;;;;;21.50;15.67;;;7.60;99.90;;;;;;4998041;28;20431;-68
2022/01/25 05:59:27;;;;;;;24.60;16.33;;;7.50;99.90;;;;;;5032695;28;20413;-68
2022/01/25 06:01:53;;;;;;;26.30;16.23;;;7.50;99.90;;;;;;5032556;28;20180;-82
2022/01/25 06:04:21;;;;;;;24.73;14.77;;;7.40;99.90;;;;;;5032618;28;20465;-68
2022/01/25 06:06:46;;;;;;;21.27;15.47;;;7.60;99.90;;;;;;5032729;28;20478;-68
2022/01/25 06:09:12;;;;;;;22.43;16.70;;;7.60;99.90;;;;;;5032011;28;20439;-68
2022/01/25 06:11:38;;;;;;;20.77;15.00;;;7.10;99.90;;;;;;5032184;28;20201;-68
2022/01/25 06:14:04;;;;;;;24.10;15.13;;;7.60;99.90;;;;;;5014354;28;20510;-69
2022/01/25 06:16:30;;;;;;;22.47;15.40;;;7.50;99.90;;;;;;5032249;28;20276;-68
2022/01/25 06:18:58;;;;;;;22.23;16.30;;;7.70;99.90;;;;;;5031538;28;20507;-69
2022/01/25 06:21:24;;;;;;;20.80;14.80;;;7.50;99.90;;;;;;5029771;28;20497;-69
2022/01/25 06:23:50;;;;;;;18.60;13.50;;;7.50;99.90;;;;;;5053865;28;20438;-68
2022/01/25 06:26:17;;;;;;;19.70;14.90;;;7.40;99.90;;;;;;5061239;28;20437;-69
2022/01/25 06:28:42;;;;;;;21.30;16.20;;;7.50;99.90;;;;;;5072492;28;20952;-68
2022/01/25 06:31:08;;;;;;;21.00;14.80;;;7.40;99.90;;;;;;5071958;28;20408;-68
2022/01/25 06:33:34;;;;;;;21.40;15.17;;;7.20;99.90;;;;;;5047048;28;20575;-71
2022/01/25 06:36:01;;;;;;;23.40;14.70;;;7.20;99.90;;;;;;5065651;28;20516;-70
2022/01/25 06:38:27;;;;;;;23.93;15.10;;;7.30;99.90;;;;;;5063034;28;20442;-68
2022/01/25 06:40:53;;;;;;;21.47;14.53;;;7.30;99.90;;;;;;5037903;28;20426;-80
2022/01/25 06:43:19;;;;;;;19.53;14.00;;;7.30;99.90;;;;;;5071035;28;20409;-68
2022/01/25 06:45:54;;;;;;;18.97;13.67;;;7.30;99.90;;;;;;5058698;28;20931;-68
2022/01/25 06:48:20;;;;;;;22.00;14.60;;;7.30;99.90;;;;;;5050532;28;20249;-70
2022/01/25 06:50:46;;;;;;;21.90;14.40;;;7.30;99.90;;;;;;5049786;28;20457;-69
2022/01/25 06:53:11;;;;;;;22.63;14.53;;;7.30;99.90;;;;;;5062933;28;20431;-69
2022/01/25 06:55:37;;;;;;;22.07;14.67;;;7.40;99.90;;;;;;5073240;28;20191;-69
2022/01/25 06:58:03;;;;;;;20.43;15.77;;;7.40;99.90;;;;;;5073082;28;20187;-69
2022/01/25 07:00:29;;;;;;;22.57;14.53;;;7.40;99.90;;;;;;5070902;28;20432;-69
2022/01/25 07:02:54;;;;;;;23.60;15.10;;;7.40;99.90;;;;;;5061114;28;20192;-70
2022/01/25 07:05:20;;;;;;;22.43;14.47;;;7.40;99.90;;;;;;5065794;28;20531;-68
2022/01/25 07:07:47;;;;;;;22.10;13.80;;;7.40;99.90;;;;;;5055708;28;20208;-69
2022/01/25 07:10:13;;;;;;;21.50;14.83;;;7.20;99.90;;;;;;5062373;28;20218;-68
2022/01/25 07:12:38;;;;;;;22.27;14.90;;;7.50;99.90;;;;;;5055009;28;20909;-69
2022/01/25 07:15:05;;;;;;;21.97;15.50;;;7.50;99.70;;;;;;5053803;28;20501;-68
2022/01/25 07:17:31;;;;;;;22.77;14.90;;;7.40;99.80;;;;;;5054448;28;20259;-68
2022/01/25 07:19:56;;;;;;;25.37;16.77;;;7.20;99.90;;;;;;5054180;28;20525;-82
2022/01/25 07:22:22;;;;;;;22.33;15.50;;;7.30;99.90;;;;;;5046416;28;20243;-68
2022/01/25 07:24:48;;;;;;;22.50;15.10;;;7.20;99.90;;;;;;5029450;28;20187;-77
2022/01/25 07:27:14;;;;;;;24.67;15.03;;;6.80;99.90;;;;;;5034027;28;20202;-69
2022/01/25 07:29:39;;;;;;;24.03;16.07;;;7.10;99.90;;;;;;5034127;28;20233;-68
2022/01/25 07:32:06;;;;;;;23.33;16.30;;;7.00;99.90;;;;;;5037895;28;20183;-72
2022/01/25 07:34:31;;;;;;;24.20;17.53;;;7.00;99.90;;;;;;5034675;28;20176;-71
2022/01/25 07:36:57;;;;;;;26.03;16.60;;;6.70;99.90;;;;;;5035586;28;20407;-81
2022/01/25 07:39:26;;;;;;;26.87;18.10;;;6.90;99.90;;;;;;5027609;28;20188;-68
2022/01/25 07:41:57;;;;;;;23.57;15.53;;;6.70;99.90;;;;;;5038260;28;20600;-68
2022/01/25 07:44:27;;;;;;;24.13;15.90;;;6.60;99.90;;;;;;5039173;28;20427;-69
2022/01/25 07:47:00;;;;;;;23.77;15.60;;;6.60;99.90;;;;;;5048166;28;20392;-69
2022/01/25 07:49:27;;;;;;;26.93;16.80;;;6.40;99.90;;;;;;5035465;28;20439;-68
2022/01/25 07:51:59;;;;;;;24.50;15.43;;;6.50;99.90;;;;;;5034947;28;20770;-69
2022/01/25 07:54:26;;;;;;;27.47;16.30;;;6.60;99.90;;;;;;5032079;28;20422;-69
2022/01/25 07:56:53;;;;;;;22.90;15.60;;;6.60;99.90;;;;;;5053574;28;20466;-68
2022/01/25 07:59:19;;;;;;;26.17;17.47;;;6.70;99.90;;;;;;5048688;28;20422;-68
2022/01/25 08:01:45;;;;;;;24.47;15.67;;;6.70;99.90;;;;;;5048716;28;20438;-70
2022/01/25 08:04:13;;;;;;;21.87;15.20;;;6.80;99.90;;;;;;5043530;28;20484;-69
2022/01/25 08:06:40;;;;;;;24.87;15.80;;;6.70;99.90;;;;;;5043326;28;20781;-70
2022/01/25 08:09:26;;;;;;;31.80;19.58;;;6.70;99.90;;;;;;5051631;28;20410;-73
2022/01/25 08:11:58;;;;;;;25.95;16.63;;;6.50;99.90;;;;;;5044043;28;20670;-73
2022/01/25 08:14:36;;;;;;;22.90;14.97;;;6.90;99.90;;;;;;5043333;28;20171;-72
2022/01/25 08:17:18;;;;;;;21.77;15.63;;;7.70;99.90;;;;;;5050136;28;20935;-72
2022/01/25 08:19:46;;;;;;;21.07;16.00;;;8.30;99.90;;;;;;5048311;28;20423;-72
2022/01/25 08:22:18;;;;;;;21.00;14.67;;;8.70;99.90;;;;;;5042205;28;20472;-73
2022/01/25 08:25:04;;;;;;;24.70;16.20;;;9.10;99.90;;;;;;5033179;28;20499;-73
2022/01/25 08:27:36;;;;;;;23.37;16.30;;;9.60;99.90;;;;;;5038315;28;20467;-72
2022/01/25 08:30:05;;;;;;;22.23;15.80;;;10.10;99.90;;;;;;5036022;28;20426;-72
2022/01/25 08:32:43;;;;;;;23.97;15.93;;;10.60;99.10;;;;;;5033635;28;20404;-72
2022/01/25 08:35:15;;;;;;;24.23;16.47;;;11.00;98.80;;;;;;5032737;28;20476;-73
2022/01/25 08:37:49;;;;;;;22.67;16.73;;;11.30;96.60;;;;;;5034379;28;20487;-72
2022/01/25 08:40:15;;;;;;;23.87;18.60;;;11.70;97.20;;;;;;5036656;28;20519;-73
2022/01/25 08:42:44;;;;;;;23.00;16.60;;;11.90;93.60;;;;;;5036938;28;20430;-72
2022/01/25 08:45:18;;;;;;;21.03;15.60;;;12.00;92.80;;;;;;5044482;28;20419;-73
2022/01/25 08:47:44;;;;;;;22.07;16.10;;;12.20;93.60;;;;;;5037007;28;20510;-73
2022/01/25 08:50:12;;;;;;;21.97;16.33;;;12.30;91.30;;;;;;5032332;28;20914;-73
2022/01/25 08:52:44;;;;;;;24.17;16.37;;;12.00;90.30;;;;;;5032556;28;20917;-73
2022/01/25 08:55:10;;;;;;;21.70;16.97;;;12.20;91.40;;;;;;5035019;28;20427;-71
2022/01/25 08:57:48;;;;;;;20.73;15.30;;;12.30;91.20;;;;;;5040460;28;20432;-69
2022/01/25 09:00:23;;;;;;;20.67;15.83;;;12.20;86.40;;;;;;5026831;28;20454;-69
2022/01/25 09:02:48;;;;;;;27.50;17.00;;;11.80;84.60;;;;;;5033110;28;20452;-69
2022/01/25 09:05:14;;;;;;;22.40;18.00;;;11.30;85.10;;;;;;5014878;28;20335;-69
2022/01/25 09:07:40;;;;;;;24.80;16.83;;;10.80;86.50;;;;;;5022776;28;20204;-68
2022/01/25 09:10:06;;;;;;;26.27;18.40;;;9.90;90.40;;;;;;5044615;28;20261;-69
2022/01/25 09:12:32;;;;;;;30.53;19.50;;;9.60;91.50;;;;;;5018399;28;20174;-68
2022/01/25 09:14:58;;;;;;;28.00;18.83;;;9.30;93.20;;;;;;5032582;28;20976;-73
2022/01/25 09:17:23;;;;;;;22.23;16.17;;;9.10;93.40;;;;;;5035853;28;20268;-69
2022/01/25 09:19:49;;;;;;;24.30;15.30;;;8.90;93.80;;;;;;5031755;28;20185;-69
2022/01/25 09:22:15;;;;;;;20.63;15.17;;;8.60;94.20;;;;;;5037212;28;20252;-68
2022/01/25 09:24:40;;;;;;;23.77;15.30;;;8.30;95.10;;;;;;5031624;28;20645;-71
2022/01/25 09:27:08;;;;;;;22.67;16.00;;;8.00;95.70;;;;;;5030553;28;20170;-69
2022/01/25 09:29:34;;;;;;;27.87;16.97;;;7.90;96.70;;;;;;5035066;28;20235;-69
2022/01/25 09:32:00;;;;;;;25.97;15.13;;;7.80;97.30;;;;;;5037330;28;20832;-79
2022/01/25 09:34:27;;;;;;;26.57;17.20;;;7.50;97.30;;;;;;5035524;28;20418;-69
2022/01/25 09:36:53;;;;;;;24.30;16.53;;;7.10;98.80;;;;;;5034657;28;20188;-69
2022/01/25 09:39:21;;;;;;;25.63;15.50;;;7.10;99.30;;;;;;5036997;28;20531;-71
2022/01/25 09:41:47;;;;;;;25.47;15.73;;;7.00;99.60;;;;;;5031792;28;20431;-69
2022/01/25 09:44:12;;;;;;;24.67;15.73;;;6.70;99.90;;;;;;5051999;28;20418;-69
2022/01/25 09:46:39;;;;;;;25.17;15.67;;;6.70;99.90;;;;;;5045140;28;20935;-72
2022/01/25 09:49:05;;;;;;;23.67;15.57;;;6.80;99.90;;;;;;5051269;28;20321;-69
2022/01/25 09:51:32;;;;;;;26.80;15.52;;;6.70;99.90;;;;;;5037643;28;20425;-69
2022/01/25 09:53:58;;;;;;;27.30;16.13;;;6.60;99.90;;;;;;5031955;28;20183;-69
2022/01/25 09:56:24;;;;;;;30.17;16.63;;;6.70;99.90;;;;;;5031990;28;20912;-68
2022/01/25 09:58:51;;;;;;;24.30;16.90;;;6.70;99.90;;;;;;5031724;28;20184;-69
2022/01/25 10:01:25;;;;;;;29.27;15.43;;;6.70;99.90;;;;;;4997919;28;20541;-71
2022/01/25 10:03:51;;;;;;;26.60;15.53;;;6.90;99.90;;;;;;5032139;28;20886;-68
2022/01/25 10:06:20;;;;;;;27.23;15.60;;;6.80;99.90;;;;;;5048273;28;20400;-73
2022/01/25 10:08:52;;;;;;;28.00;16.17;;;6.80;99.90;;;;;;5052015;28;20204;-68
2022/01/25 10:11:21;;;;;;;28.10;16.00;;;6.90;99.90;;;;;;5031841;28;20440;-69
2022/01/25 10:13:50;;;;;;;26.67;15.87;;;6.90;99.90;;;;;;5031759;28;20414;-69
2022/01/25 10:16:19;;;;;;;26.27;15.90;;;7.10;99.90;;;;;;5013278;28;20438;-69
2022/01/25 10:18:55;;;;;;;28.00;16.60;;;6.90;99.90;;;;;;5032652;28;20463;-69
2022/01/25 10:21:36;;;;;;;21.40;14.03;;;6.80;99.90;;;;;;5031135;28;20537;-69
2022/01/25 10:24:05;;;;;;;25.47;15.47;;;6.90;99.90;;;;;;5035011;28;20425;-81
2022/01/25 10:26:53;;;;;;;24.80;14.90;;;6.90;99.90;;;;;;5037651;28;20830;-69
2022/01/25 10:29:30;;;;;;;21.80;14.07;;;7.00;99.90;;;;;;5035139;28;20430;-68
2022/01/25 10:31:59;;;;;;;20.33;13.53;;;6.90;99.90;;;;;;5035648;28;20816;-68
2022/01/25 10:34:34;;;;;;;25.03;13.67;;;6.90;99.90;;;;;;5045066;28;20400;-69
2022/01/25 10:37:13;;;;;;;24.77;15.30;;;6.80;99.90;;;;;;5049101;28;20753;-68
2022/01/25 10:39:47;;;;;;;25.07;13.60;;;6.50;99.90;;;;;;5046386;28;20496;-68
2022/01/25 10:42:28;;;;;;;25.37;14.67;;;6.40;99.90;;;;;;5034476;28;20905;-69
2022/01/25 10:44:58;;;;;;;23.40;13.53;;;6.30;99.90;;;;;;5053151;28;20411;-68
2022/01/25 10:47:42;;;;;;;27.13;15.37;;;6.40;99.90;;;;;;5035982;28;21145;-68
2022/01/25 10:50:31;;;;;;;32.03;16.38;;;6.20;99.90;;;;;;5054044;28;20421;-69
2022/01/25 10:53:15;;;;;;;27.13;15.25;;;6.00;99.90;;;;;;5055238;28;20514;-69
2022/01/25 10:55:46;;;;;;;27.83;16.73;;;6.10;99.90;;;;;;5055023;28;20177;-68
2022/01/25 10:58:13;;;;;;;25.80;15.67;;;5.90;99.90;;;;;;5036393;28;20468;-68
2022/01/25 11:00:43;;;;;;;24.05;14.52;;;6.40;99.90;;;;;;5053283;28;20751;-68
2022/01/25 11:03:10;;;;;;;22.70;14.23;;;6.00;99.90;;;;;;5054237;28;20289;-69
2022/01/25 11:05:43;;;;;;;26.25;14.68;;;6.10;99.90;;;;;;5037047;28;20236;-69
2022/01/25 11:08:18;;;;;;;25.60;14.57;;;6.20;99.90;;;;;;5054177;28;20209;-69
2022/01/25 11:10:54;;;;;;;24.27;15.20;;;6.30;99.90;;;;;;5054785;28;20403;-68
2022/01/25 11:16:02;;;;;;;24.80;13.70;;;6.40;99.90;;;;;;5034841;28;20207;-68
2022/01/25 11:18:30;;;;;;;22.13;13.07;;;6.40;99.90;;;;;;5044474;28;20258;-68
2022/01/25 11:20:56;;;;;;;20.20;11.55;;;6.70;99.90;;;;;;5054554;28;20453;-68
2022/01/25 11:23:22;;;;;;;20.70;12.60;;;6.30;99.90;;;;;;5035637;28;20514;-68
2022/01/25 11:25:48;;;;;;;21.13;12.20;;;6.30;99.90;;;;;;5016864;28;20477;-68
2022/01/25 11:28:15;;;;;;;20.60;12.05;;;6.30;99.90;;;;;;5033623;28;20456;-68
2022/01/25 11:30:42;;;;;;;19.67;11.63;;;6.40;99.90;;;;;;5016772;28;20987;-69
2022/01/25 11:33:10;;;;;;;19.70;12.15;;;6.50;99.90;;;;;;5033737;28;20190;-81
2022/01/25 11:35:37;;;;;;;22.43;12.30;;;6.10;99.90;;;;;;5034481;28;20202;-68
2022/01/25 11:38:04;;;;;;;19.00;11.60;;;6.70;99.90;;;;;;5016307;28;20417;-68
2022/01/25 11:40:31;;;;;;;20.93;13.10;;;6.70;99.90;;;;;;5032671;28;20429;-68
2022/01/25 11:43:00;;;;;;;21.60;11.57;;;6.70;99.90;;;;;;5033795;28;20426;-69
2022/01/25 11:45:32;;;;;;;20.85;12.80;;;6.70;99.90;;;;;;5033284;28;20721;-69
2022/01/25 11:47:58;;;;;;;20.83;14.60;;;6.40;99.90;;;;;;5033532;28;20208;-68
2022/01/25 11:50:36;;;;;;;18.67;12.17;;;6.80;99.90;;;;;;5025395;28;20428;-68
2022/01/25 11:53:07;;;;;;;18.93;10.57;;;6.80;99.90;;;;;;5036739;28;20390;-69
2022/01/25 11:55:42;;;;;;;17.00;10.80;;;6.80;99.90;;;;;;5033509;28;20389;-69
2022/01/25 11:58:14;;;;;;;19.40;12.83;;;6.80;99.90;;;;;;5016128;28;20436;-82
2022/01/25 12:00:50;;;;;;;17.30;10.93;;;6.80;99.90;;;;;;5033664;28;20422;-69
2022/01/25 12:03:26;;;;;;;13.13;9.70;;;6.80;99.90;;;;;;5033159;28;20263;-68
2022/01/25 12:06:08;;;;;;;16.53;10.40;;;6.80;99.90;;;;;;5018047;28;20389;-69
2022/01/25 12:09:40;;;;;;;19.10;14.30;;;6.90;99.90;;;;;;5033543;28;20471;-68
2022/01/25 12:11:57;;;;;;;14.13;10.73;;;6.90;99.90;;;;;;5024179;28;20501;-69
2022/01/25 12:14:29;;;;;;;15.63;10.00;;;6.90;99.90;;;;;;5032607;28;20730;-69
2022/01/25 12:17:04;;;;;;;15.93;8.67;;;6.90;99.90;;;;;;5049027;28;20422;-68
2022/01/25 12:19:51;;;;;;;16.83;9.77;;;6.90;99.90;;;;;;5035736;28;20679;-68
2022/01/25 12:22:26;;;;;;;15.17;10.33;;;6.50;99.90;;;;;;5054670;28;20496;-68
2022/01/25 12:25:05;;;;;;;14.47;10.63;;;6.40;99.90;;;;;;5072588;28;20859;-70
2022/01/25 12:27:48;;;;;;;13.00;10.17;;;6.60;99.90;;;;;;5071417;28;20454;-68
2022/01/25 12:30:19;;;;;;;19.35;10.85;;;6.50;99.90;;;;;;5072538;28;20409;-69
2022/01/25 12:33:00;;;;;;;16.03;10.70;;;6.60;99.90;;;;;;5062454;28;20169;-69
2022/01/25 12:35:50;;;;;;;15.87;9.13;;;6.60;99.90;;;;;;5064239;28;20428;-69
2022/01/25 12:38:44;;;;;;;14.50;8.80;;;6.50;99.90;;;;;;5059475;28;20429;-68
2022/01/25 12:41:24;;;;;;;14.53;9.60;;;6.40;99.90;;;;;;5052199;28;20910;-68
2022/01/25 12:43:56;;;;;;;14.77;9.93;;;6.60;99.90;;;;;;5063738;28;20904;-67
2022/01/25 12:46:33;;;;;;;17.70;10.53;;;6.50;99.90;;;;;;5062049;28;20432;-69
2022/01/25 12:49:10;;;;;;;16.83;8.90;;;6.60;99.90;;;;;;5061410;28;20464;-68
2022/01/25 12:51:38;;;;;;;15.23;8.50;;;6.60;99.90;;;;;;5056969;28;20393;-69
2022/01/25 12:54:09;;;;;;;13.57;8.80;;;6.50;99.90;;;;;;5065416;28;20464;-69
2022/01/25 12:56:49;;;;;;;13.75;8.07;;;6.20;99.90;;;;;;5071803;28;20428;-73
2022/01/25 12:59:23;;;;;;;14.27;8.55;;;6.30;99.90;;;;;;5051972;28;20176;-69
2022/01/25 13:01:50;;;;;;;14.33;9.40;;;6.40;99.90;;;;;;5051377;28;20177;-69
2022/01/25 13:04:17;;;;;;;14.80;8.83;;;6.40;99.90;;;;;;5055741;28;20401;-68
2022/01/25 13:06:50;;;;;;;13.90;8.40;;;6.40;99.90;;;;;;5057380;28;20445;-68
2022/01/25 13:17:15;;;;;;;16.53;9.30;;;6.60;99.90;;;;;;5064179;28;20408;-69
2022/01/25 13:19:46;;;;;;;15.60;10.30;;;6.70;99.90;;;;;;5054880;28;20407;-69
2022/01/25 13:22:16;;;;;;;13.90;9.38;;;6.70;99.90;;;;;;5057037;28;20469;-82
2022/01/25 13:27:50;;;;;;;14.40;10.80;;;6.60;99.90;;;;;;5059862;28;20449;-70
2022/01/25 13:30:41;;;;;;;13.10;8.50;;;6.70;99.90;;;;;;5055339;28;20388;-69
2022/01/25 13:33:08;;;;;;;12.67;8.97;;;6.70;99.90;;;;;;5072394;28;20385;-69
2022/01/25 13:35:37;;;;;;;15.70;9.93;;;6.80;99.90;;;;;;5065224;28;20902;-69
2022/01/25 13:38:05;;;;;;;12.23;8.63;;;6.80;99.90;;;;;;5052607;28;20465;-69
2022/01/25 13:46:10;;;;;;;13.70;8.00;;;6.60;99.90;;;;;;5052597;28;20389;-68
2022/01/25 13:48:37;;;;;;;11.97;7.70;;;6.60;99.90;;;;;;5051771;28;20428;-68
2022/01/25 13:51:18;;;;;;;12.30;10.67;;;6.60;99.90;;;;;;5063191;28;20933;-68
2022/01/25 13:53:51;;;;;;;14.07;9.37;;;6.60;99.90;;;;;;5072248;28;20461;-69
2022/01/25 13:56:18;;;;;;;17.50;9.07;;;6.20;99.90;;;;;;5069933;28;20511;-77
2022/01/25 13:58:50;;;;;;;16.07;9.13;;;6.60;99.90;;;;;;5072532;28;20394;-69
2022/01/25 14:01:18;;;;;;;11.80;8.30;;;6.60;99.90;;;;;;5068763;28;20912;-69
2022/01/25 14:03:52;;;;;;;12.27;8.97;;;6.70;99.90;;;;;;5076338;28;20387;-69
2022/01/25 14:06:42;;;;;;;13.13;8.60;;;6.80;99.80;;;;;;5074743;28;20395;-69
2022/01/25 14:09:31;;;;;;;12.27;8.03;;;6.80;99.50;;;;;;5059469;28;20563;-69
2022/01/25 14:23:19;;;;;;;16.17;9.43;;;6.80;99.60;;;;;;5062306;28;20436;-69
2022/01/25 14:25:43;;;;;;;12.20;8.17;;;6.50;99.20;;;;;;5074310;28;20938;-69
2022/01/25 14:28:20;;;;;;;14.80;9.20;;;6.90;99.30;;;;;;5075470;28;20559;-68
2022/01/25 14:30:48;;;;;;;15.00;9.60;;;6.90;99.30;;;;;;5067308;28;20413;-68
2022/01/25 14:33:17;;;;;;;13.80;8.43;;;7.00;99.10;;;;;;5058173;28;20437;-69
2022/01/25 14:35:56;;;;;;;15.43;9.80;;;7.00;99.10;;;;;;5063438;28;20976;-69
2022/01/25 14:38:26;;;;;;;10.43;8.27;;;6.90;99.00;;;;;;5054804;28;20436;-69
2022/01/25 14:41:08;;;;;;;198.27;104.57;;;7.00;99.10;;;;;;5055564;28;20422;-68
2022/01/25 14:43:51;;;;;;;57.40;36.10;;;7.00;99.30;;;;;;5058987;28;20434;-69
2022/01/25 14:46:24;;;;;;;16.30;10.63;;;7.00;99.20;;;;;;5065799;28;20873;-72
2022/01/25 14:49:05;;;;;;;12.60;8.47;;;7.00;98.90;;;;;;5055258;28;20452;-70
2022/01/25 14:51:46;;;;;;;9.77;8.17;;;7.00;98.70;;;;;;5053212;28;20396;-69
2022/01/25 14:54:17;;;;;;;13.33;9.10;;;6.90;98.90;;;;;;5053928;28;20752;-69
2022/01/25 14:56:48;;;;;;;13.37;8.07;;;6.90;99.00;;;;;;5054835;28;20407;-70
2022/01/25 14:59:23;;;;;;;16.70;8.43;;;7.00;99.30;;;;;;5055405;28;20569;-69
2022/01/25 15:01:50;;;;;;;13.50;7.70;;;6.50;99.90;;;;;;5053831;28;20431;-70
2022/01/25 15:04:16;;;;;;;12.53;8.13;;;6.80;99.50;;;;;;5055005;28;20441;-69
2022/01/25 15:06:42;;;;;;;13.03;9.40;;;6.80;99.20;;;;;;5054942;28;20474;-69
2022/01/25 15:09:10;;;;;;;13.50;8.90;;;6.90;99.30;;;;;;5054797;28;20965;-70
2022/01/25 15:11:36;;;;;;;10.33;8.07;;;7.00;99.00;;;;;;5053106;28;20646;-70
2022/01/25 15:14:09;;;;;;;10.30;7.63;;;6.60;98.30;;;;;;5053922;28;20405;-69